Time;durP1;ratioP1;P1;durP2;ratioP2;P2;SDS_P1;SDS_P2;PMS_P1;PMS_P2;Temp;Humidity;BMP_temperature;BMP_pressure;BME280_temperature;BME280_humidity;BME280_pressure;Samples;Min_cycle;Max_cycle;Signal;HPM_P1;HPM_P2
2021/10/16 00:01:22;;;;;;;14.10;7.88;;;256.00;2252.80;;;;;;5036628;28;20034;-85
2021/10/16 00:03:48;;;;;;;15.05;8.98;;;256.00;2252.80;;;;;;5019026;28;20033;-86
2021/10/16 00:06:15;;;;;;;14.32;7.72;;;256.00;2252.80;;;;;;5036658;28;20037;-85
2021/10/16 00:08:40;;;;;;;14.65;7.18;;;256.00;2252.80;;;;;;5036520;28;20025;-84
2021/10/16 00:11:07;;;;;;;12.93;8.18;;;256.00;2252.80;;;;;;5018832;28;20032;-85
2021/10/16 00:13:32;;;;;;;11.95;8.00;;;231.20;2252.80;;;;;;5018250;28;20032;-82
2021/10/16 00:15:58;;;;;;;12.57;8.10;;;256.00;2252.80;;;;;;5035227;28;20029;-82
2021/10/16 00:18:25;;;;;;;11.77;7.15;;;256.00;2252.80;;;;;;5018070;28;20030;-83
2021/10/16 00:20:54;;;;;;;11.07;6.95;;;256.00;2252.80;;;;;;5017956;28;20037;-81
2021/10/16 00:23:20;;;;;;;14.20;7.88;;;256.00;2252.80;;;;;;5017845;28;20101;-82
2021/10/16 00:25:46;;;;;;;11.65;6.68;;;256.00;2252.80;;;;;;5035263;28;20417;-83
2021/10/16 00:28:12;;;;;;;15.05;8.02;;;256.00;2252.80;;;;;;5035431;28;20330;-84
2021/10/16 00:30:37;;;;;;;12.43;7.25;;;256.00;2252.80;;;;;;5035399;28;20079;-84
2021/10/16 00:33:03;;;;;;;12.18;7.40;;;256.00;2252.80;;;;;;5035163;28;20388;-80
2021/10/16 00:35:29;;;;;;;16.77;9.27;;;231.30;2252.80;;;;;;5018475;28;20040;-85
2021/10/16 00:37:55;;;;;;;18.42;11.38;;;231.30;2252.80;;;;;;5018219;28;20026;-83
2021/10/16 00:40:21;;;;;;;19.75;10.00;;;231.30;2252.80;;;;;;5017433;28;20037;-78
2021/10/16 00:42:49;;;;;;;15.38;10.00;;;256.00;2252.80;;;;;;5034867;28;20037;-78
2021/10/16 00:45:16;;;;;;;14.70;8.55;;;256.00;2252.80;;;;;;5034917;28;20030;-83
2021/10/16 00:47:42;;;;;;;19.35;9.93;;;256.00;2252.80;;;;;;5034811;28;20029;-80
2021/10/16 00:50:09;;;;;;;18.70;11.05;;;256.00;2252.80;;;;;;5035216;28;20021;-84
2021/10/16 00:52:36;;;;;;;12.50;7.85;;;256.00;2252.80;;;;;;5017841;28;20071;-85
2021/10/16 00:55:02;;;;;;;12.63;6.85;;;256.00;2252.80;;;;;;5017305;28;20056;-82
2021/10/16 00:57:28;;;;;;;9.85;6.30;;;256.00;2252.80;;;;;;5017403;28;20045;-84
2021/10/16 00:59:54;;;;;;;14.15;8.18;;;256.00;2252.80;;;;;;5035124;28;20022;-85
2021/10/16 01:02:20;;;;;;;10.43;5.93;;;256.00;2252.80;;;;;;5035174;28;20071;-84
2021/10/16 01:04:47;;;;;;;9.10;5.75;;;256.00;2252.80;;;;;;5035014;28;20057;-81
2021/10/16 01:07:14;;;;;;;8.77;5.25;;;231.30;2252.80;;;;;;5034988;28;20032;-82
2021/10/16 01:09:44;;;;;;;9.35;5.18;;;231.30;2252.80;;;;;;5034893;28;20129;-83
2021/10/16 01:12:10;;;;;;;10.10;5.05;;;256.00;2252.80;;;;;;5017406;28;20040;-81
2021/10/16 01:14:48;;;;;;;8.95;5.65;;;256.00;2252.80;;;;;;5017458;28;20025;-84
2021/10/16 01:17:17;;;;;;;5.85;4.60;;;256.00;2252.80;;;;;;5017436;28;20477;-85
2021/10/16 01:19:45;;;;;;;11.38;4.20;;;256.00;2252.80;;;;;;5017384;28;20029;-83
2021/10/16 01:22:12;;;;;;;9.75;5.82;;;256.00;2252.80;;;;;;5017240;28;20039;-85
2021/10/16 01:24:39;;;;;;;9.85;5.10;;;256.00;2252.80;;;;;;5034585;28;20022;-82
2021/10/16 01:27:06;;;;;;;9.90;5.43;;;256.00;2252.80;;;;;;5034518;28;20029;-82
2021/10/16 01:29:34;;;;;;;7.60;4.68;;;256.00;2252.80;;;;;;5034261;28;20040;-84
2021/10/16 01:32:02;;;;;;;12.85;5.32;;;256.00;2252.80;;;;;;5016300;28;20048;-79
2021/10/16 01:34:29;;;;;;;4.50;3.30;;;256.00;2252.80;;;;;;5016190;28;20394;-80
2021/10/16 01:36:55;;;;;;;6.90;4.25;;;256.00;2252.80;;;;;;5034120;28;20053;-79
2021/10/16 01:39:22;;;;;;;7.80;4.72;;;256.00;2252.80;;;;;;5033893;28;20025;-79
2021/10/16 01:41:49;;;;;;;9.18;4.88;;;256.10;2252.80;;;;;;5015822;28;20116;-79
2021/10/16 01:44:15;;;;;;;8.63;4.53;;;256.00;2252.80;;;;;;5033907;28;20436;-80
2021/10/16 01:46:42;;;;;;;8.75;4.40;;;256.10;2252.80;;;;;;5034233;28;20492;-79
2021/10/16 01:49:13;;;;;;;9.27;4.50;;;256.10;2252.80;;;;;;5017149;28;20029;-86
2021/10/16 01:51:40;;;;;;;5.72;3.45;;;256.00;2252.80;;;;;;5021551;28;20044;-86
2021/10/16 01:54:06;;;;;;;5.90;3.40;;;256.00;2252.80;;;;;;5035595;28;20029;-86
2021/10/16 01:56:32;;;;;;;6.72;3.65;;;256.10;2252.80;;;;;;5017526;28;20041;-85
2021/10/16 01:59:15;;;;;;;5.85;3.75;;;256.10;2252.80;;;;;;5035139;28;20026;-85
2021/10/16 02:01:41;;;;;;;6.40;3.53;;;256.10;2252.80;;;;;;5034576;28;20040;-85
2021/10/16 02:04:07;;;;;;;6.38;2.92;;;256.10;2252.80;;;;;;5034559;28;20022;-83
2021/10/16 02:06:33;;;;;;;8.35;3.67;;;256.10;2252.80;;;;;;5016594;28;20032;-82
2021/10/16 02:08:58;;;;;;;7.70;3.13;;;256.10;2252.80;;;;;;5034604;28;20017;-85
2021/10/16 02:11:24;;;;;;;5.70;3.80;;;256.10;2252.80;;;;;;5015959;28;20033;-86
2021/10/16 02:13:50;;;;;;;6.30;3.92;;;256.10;2252.80;;;;;;5034831;28;20071;-84
2021/10/16 02:16:16;;;;;;;5.85;3.28;;;256.10;2252.80;;;;;;5016796;28;20423;-85
2021/10/16 02:18:42;;;;;;;4.32;2.65;;;256.20;2252.80;;;;;;5034400;28;20363;-85
2021/10/16 02:21:07;;;;;;;4.97;2.50;;;256.20;2252.80;;;;;;5033668;28;20041;-79
2021/10/16 02:23:33;;;;;;;3.35;2.00;;;256.20;2252.80;;;;;;5015840;28;20055;-80
2021/10/16 02:25:59;;;;;;;3.55;2.45;;;256.20;2252.80;;;;;;5032923;28;20424;-78
2021/10/16 02:28:25;;;;;;;3.03;2.10;;;256.20;2252.80;;;;;;5015500;28;20060;-79
2021/10/16 02:30:50;;;;;;;5.47;2.63;;;256.20;2252.80;;;;;;5033890;28;20028;-84
2021/10/16 02:33:16;;;;;;;3.55;2.65;;;256.10;2252.80;;;;;;5034112;28;20032;-85
2021/10/16 02:35:42;;;;;;;4.75;2.90;;;256.10;2252.80;;;;;;5016238;28;20021;-85
2021/10/16 02:38:08;;;;;;;4.30;3.05;;;256.00;2252.80;;;;;;5037681;28;20528;-85
2021/10/16 02:40:34;;;;;;;4.05;2.15;;;256.10;2252.80;;;;;;5040308;28;20021;-84
2021/10/16 02:43:03;;;;;;;2.80;1.38;;;256.10;2252.80;;;;;;5022560;28;20042;-86
2021/10/16 02:45:29;;;;;;;3.20;1.45;;;256.10;2252.80;;;;;;5040452;28;20026;-85
2021/10/16 02:47:54;;;;;;;4.13;2.13;;;256.10;2252.80;;;;;;5023175;28;20401;-86
2021/10/16 02:50:21;;;;;;;3.92;1.75;;;256.20;2252.80;;;;;;5040431;28;20428;-86
2021/10/16 02:52:47;;;;;;;4.00;1.83;;;256.30;2252.80;;;;;;5040593;28;20014;-82
2021/10/16 02:55:12;;;;;;;3.65;2.00;;;256.20;2252.80;;;;;;5021681;28;20377;-81
2021/10/16 02:57:38;;;;;;;5.88;2.03;;;256.20;2252.80;;;;;;5022060;28;20111;-83
2021/10/16 03:00:05;;;;;;;3.63;2.50;;;256.20;2252.80;;;;;;5021869;28;20041;-84
2021/10/16 03:02:31;;;;;;;2.47;1.70;;;256.20;2252.80;;;;;;5040392;28;20040;-84
2021/10/16 03:04:56;;;;;;;3.45;1.65;;;256.30;2252.80;;;;;;5022160;28;20366;-84
2021/10/16 03:07:22;;;;;;;4.68;2.10;;;256.20;2252.80;;;;;;5022705;28;20140;-83
2021/10/16 03:09:48;;;;;;;6.45;2.10;;;256.20;2252.80;;;;;;5040264;28;20025;-85
2021/10/16 03:12:14;;;;;;;3.08;1.48;;;256.20;2252.80;;;;;;5040278;28;20033;-84
2021/10/16 03:14:40;;;;;;;3.38;2.00;;;256.20;2252.80;;;;;;5022446;28;20025;-83
2021/10/16 03:17:05;;;;;;;3.38;2.00;;;256.20;2252.80;;;;;;5022585;28;20056;-84
2021/10/16 03:19:31;;;;;;;3.63;2.28;;;256.20;2252.80;;;;;;5040140;28;20076;-85
2021/10/16 03:21:57;;;;;;;4.30;2.60;;;256.10;2252.80;;;;;;5040183;28;20041;-86
2021/10/16 03:24:24;;;;;;;4.22;3.05;;;256.10;2252.80;;;;;;5040249;28;20029;-85
2021/10/16 03:26:49;;;;;;;5.80;2.83;;;256.10;2252.80;;;;;;5022234;28;20060;-85
2021/10/16 03:29:15;;;;;;;5.68;3.17;;;256.10;2252.80;;;;;;5022338;28;20033;-85
2021/10/16 03:31:41;;;;;;;5.55;2.53;;;256.20;2252.80;;;;;;5022611;28;20099;-84
2021/10/16 03:34:07;;;;;;;2.72;1.42;;;256.20;2252.80;;;;;;5040074;28;20021;-85
2021/10/16 03:36:33;;;;;;;5.05;2.53;;;256.10;2252.80;;;;;;5022027;28;20167;-85
2021/10/16 03:38:59;;;;;;;4.90;2.47;;;256.20;2252.80;;;;;;5022450;28;20098;-86
2021/10/16 03:41:25;;;;;;;4.50;2.88;;;256.20;2252.80;;;;;;5022035;28;20041;-86
2021/10/16 03:43:50;;;;;;;6.75;2.53;;;256.20;2252.80;;;;;;5039561;28;20056;-85
2021/10/16 03:46:16;;;;;;;4.95;2.80;;;256.20;2252.80;;;;;;5022597;28;20029;-86
2021/10/16 03:48:42;;;;;;;8.88;4.97;;;256.20;2252.80;;;;;;5021078;28;20032;-85
2021/10/16 03:51:09;;;;;;;9.60;5.20;;;256.20;2252.80;;;;;;5018470;28;20547;-85
2021/10/16 03:53:35;;;;;;;9.52;5.22;;;256.20;2252.80;;;;;;5036913;28;20045;-86
2021/10/16 03:56:00;;;;;;;6.75;3.88;;;256.20;2252.80;;;;;;5019118;28;20026;-84
2021/10/16 03:58:26;;;;;;;7.03;3.50;;;256.20;2252.80;;;;;;5015134;28;20054;-85
2021/10/16 04:00:57;;;;;;;5.60;3.03;;;256.30;2252.80;;;;;;5016741;28;20022;-85
2021/10/16 04:03:23;;;;;;;8.35;3.15;;;256.20;2252.80;;;;;;5015715;28;20371;-85
2021/10/16 04:05:49;;;;;;;7.70;3.55;;;256.20;2252.80;;;;;;5015533;28;20033;-85
2021/10/16 04:08:14;;;;;;;6.65;3.60;;;256.30;2252.80;;;;;;5015706;28;20482;-85
2021/10/16 04:10:40;;;;;;;6.68;3.03;;;256.30;2252.80;;;;;;5016334;28;20033;-85
2021/10/16 04:13:06;;;;;;;6.57;3.55;;;256.30;2252.80;;;;;;5016680;28;20029;-83
2021/10/16 04:15:32;;;;;;;7.05;3.38;;;256.30;2252.80;;;;;;5015058;28;20037;-85
2021/10/16 04:17:57;;;;;;;4.43;2.85;;;256.20;2252.80;;;;;;5015652;28;20394;-85
2021/10/16 04:20:23;;;;;;;5.43;2.88;;;256.30;2252.80;;;;;;5015265;28;20033;-86
2021/10/16 04:22:49;;;;;;;5.97;3.90;;;256.30;2252.80;;;;;;5016441;28;20034;-83
2021/10/16 04:25:15;;;;;;;7.03;3.95;;;256.30;2252.80;;;;;;5016202;28;20080;-85
2021/10/16 04:27:43;;;;;;;6.68;4.45;;;256.30;2252.80;;;;;;5016075;28;20034;-79
2021/10/16 04:30:09;;;;;;;7.07;4.40;;;256.30;2252.80;;;;;;5015554;28;20022;-79
2021/10/16 04:32:35;;;;;;;9.50;5.70;;;256.30;2252.80;;;;;;5014306;28;20030;-80
2021/10/16 04:35:03;;;;;;;9.20;4.80;;;256.30;2252.80;;;;;;5014143;28;20037;-85
2021/10/16 04:37:29;;;;;;;8.73;4.82;;;256.30;2252.80;;;;;;5015674;28;20033;-84
2021/10/16 04:39:55;;;;;;;8.10;5.80;;;256.30;2252.80;;;;;;5015305;28;20041;-85
2021/10/16 04:42:21;;;;;;;8.75;5.97;;;256.30;2252.80;;;;;;5016799;28;20045;-85
2021/10/16 04:44:46;;;;;;;6.88;4.18;;;256.30;2252.80;;;;;;5016181;28;20030;-86
2021/10/16 04:47:12;;;;;;;6.30;3.83;;;256.30;2252.80;;;;;;5016281;28;20029;-85
2021/10/16 04:49:38;;;;;;;4.78;2.80;;;256.30;2252.80;;;;;;5015255;28;20124;-86
2021/10/16 04:52:06;;;;;;;4.60;2.88;;;256.30;2252.80;;;;;;5016189;28;20034;-86
2021/10/16 04:54:31;;;;;;;8.50;4.65;;;256.30;2252.80;;;;;;5016196;28;20029;-85
2021/10/16 04:56:57;;;;;;;8.55;4.68;;;256.30;2252.80;;;;;;5021692;28;20088;-86
2021/10/16 04:59:24;;;;;;;6.50;2.80;;;256.30;2252.80;;;;;;5017930;28;20367;-85
2021/10/16 05:01:51;;;;;;;5.68;3.75;;;256.30;2252.80;;;;;;5035540;28;20197;-85
2021/10/16 05:04:16;;;;;;;4.53;2.85;;;256.30;2252.80;;;;;;5035464;28;20097;-85
2021/10/16 05:06:42;;;;;;;5.07;3.80;;;256.30;2252.80;;;;;;5035553;28;20053;-84
2021/10/16 05:09:08;;;;;;;4.53;3.17;;;256.30;2252.80;;;;;;5017778;28;20124;-85
2021/10/16 05:11:34;;;;;;;5.32;3.55;;;256.30;2252.80;;;;;;5017475;28;20037;-85
2021/10/16 05:13:59;;;;;;;4.75;3.70;;;256.30;2252.80;;;;;;5035198;28;20033;-85
2021/10/16 05:16:25;;;;;;;9.00;4.90;;;256.30;2252.80;;;;;;5035354;28;20029;-85
2021/10/16 05:18:51;;;;;;;11.40;5.00;;;256.30;2252.80;;;;;;5017727;28;20036;-85
2021/10/16 05:21:16;;;;;;;8.82;6.13;;;256.30;2252.80;;;;;;5017539;28;20168;-86
2021/10/16 05:23:42;;;;;;;9.10;4.90;;;256.30;2252.80;;;;;;5035006;28;20409;-86
2021/10/16 05:26:08;;;;;;;10.70;6.32;;;256.30;2252.80;;;;;;5035136;28;20040;-85
2021/10/16 05:28:34;;;;;;;8.98;5.57;;;256.30;2252.80;;;;;;5017431;28;20084;-86
2021/10/16 05:31:00;;;;;;;8.52;5.80;;;256.30;2252.80;;;;;;5035334;28;20583;-86
2021/10/16 05:33:25;;;;;;;10.95;5.65;;;256.40;2252.80;;;;;;5019329;28;20029;-85
2021/10/16 05:35:51;;;;;;;12.02;6.15;;;256.30;2252.80;;;;;;5044337;28;20080;-84
2021/10/16 05:38:17;;;;;;;11.85;6.68;;;256.40;2252.80;;;;;;5044910;28;20048;-84
2021/10/16 05:40:42;;;;;;;11.77;6.25;;;256.40;2252.80;;;;;;5044224;28;20040;-84
2021/10/16 05:43:08;;;;;;;10.63;7.43;;;256.40;2252.80;;;;;;5041927;28;20167;-85
2021/10/16 05:45:34;;;;;;;11.25;7.47;;;256.40;2252.80;;;;;;5022242;28;20029;-85
2021/10/16 05:48:00;;;;;;;14.15;7.68;;;256.40;2252.80;;;;;;5025484;28;20033;-82
2021/10/16 05:50:26;;;;;;;11.40;7.57;;;256.40;2252.80;;;;;;5048041;28;20021;-86
2021/10/16 05:52:52;;;;;;;12.57;6.90;;;256.40;2252.80;;;;;;5031915;28;20018;-84
2021/10/16 05:55:18;;;;;;;11.95;7.50;;;256.40;2252.80;;;;;;5048272;28;20025;-84
2021/10/16 05:57:43;;;;;;;13.05;8.32;;;256.40;2252.80;;;;;;5046716;28;20052;-83
2021/10/16 06:00:10;;;;;;;34.53;17.58;;;256.40;2252.80;;;;;;5055505;28;20044;-85
2021/10/16 06:02:37;;;;;;;28.30;15.70;;;256.40;2252.80;;;;;;5025053;28;20036;-85
2021/10/16 06:05:03;;;;;;;26.40;14.07;;;256.40;2252.80;;;;;;5035263;28;20022;-85
2021/10/16 06:07:29;;;;;;;13.90;10.20;;;256.40;2252.80;;;;;;5017327;28;20033;-83
2021/10/16 06:09:54;;;;;;;22.48;12.93;;;256.40;2252.80;;;;;;5016926;28;20079;-85
2021/10/16 06:12:20;;;;;;;16.10;10.13;;;256.50;2252.80;;;;;;5016038;28;20029;-84
2021/10/16 06:14:46;;;;;;;17.20;10.02;;;256.40;2252.80;;;;;;5016608;28;20075;-85
2021/10/16 06:17:12;;;;;;;23.35;11.57;;;256.50;2252.80;;;;;;5016877;28;20116;-84
2021/10/16 06:19:39;;;;;;;30.92;15.02;;;256.50;2252.80;;;;;;5016710;28;20120;-85
2021/10/16 06:22:05;;;;;;;33.40;18.85;;;256.50;2252.80;;;;;;5016479;28;20079;-85
2021/10/16 06:24:30;;;;;;;25.08;15.88;;;256.50;2252.80;;;;;;5033942;28;20034;-83
2021/10/16 06:26:56;;;;;;;26.75;16.50;;;256.50;2252.80;;;;;;5016160;28;20033;-85
2021/10/16 06:29:22;;;;;;;20.48;13.75;;;256.50;2252.80;;;;;;5033891;28;20030;-84
2021/10/16 06:31:48;;;;;;;23.95;13.73;;;256.50;2252.80;;;;;;5033984;28;20032;-84
2021/10/16 06:34:14;;;;;;;35.97;22.42;;;256.50;2252.80;;;;;;5033651;28;20082;-84
2021/10/16 06:36:39;;;;;;;58.03;37.40;;;256.50;2252.80;;;;;;5016545;28;20508;-84
2021/10/16 06:39:05;;;;;;;35.67;21.92;;;256.50;2252.80;;;;;;5033696;28;20036;-85
2021/10/16 06:41:31;;;;;;;51.10;34.92;;;256.60;2252.80;;;;;;5034031;28;20037;-85
2021/10/16 06:43:57;;;;;;;25.00;17.77;;;256.60;2252.80;;;;;;5016165;28;20484;-85
2021/10/16 06:46:24;;;;;;;22.55;15.20;;;256.70;2252.80;;;;;;5033494;28;20030;-83
2021/10/16 06:48:49;;;;;;;26.25;15.85;;;256.70;2252.80;;;;;;5016384;28;20026;-85
2021/10/16 06:51:15;;;;;;;31.20;19.73;;;256.70;2252.80;;;;;;5016020;28;20041;-87
2021/10/16 06:53:41;;;;;;;23.35;16.48;;;256.70;2252.80;;;;;;5034063;28;20029;-90
2021/10/16 06:56:07;;;;;;;23.63;14.73;;;256.70;2252.80;;;;;;5033939;28;20026;-85
2021/10/16 06:58:34;;;;;;;46.70;28.25;;;256.70;2252.80;;;;;;5016443;28;20073;-90
2021/10/16 07:01:00;;;;;;;40.65;23.95;;;256.70;2252.80;;;;;;5017039;28;20097;-92
2021/10/16 07:03:28;;;;;;;32.38;22.17;;;256.70;2252.80;;;;;;5034151;28;20438;-90
2021/10/16 07:05:54;;;;;;;41.53;25.65;;;256.70;2252.80;;;;;;5036450;28;20029;-95
2021/10/16 07:08:19;;;;;;;65.68;42.33;;;256.70;2252.80;;;;;;5038903;28;20029;-94
2021/10/16 07:10:47;;;;;;;34.58;21.00;;;256.70;2252.80;;;;;;5034282;28;20026;-86
2021/10/16 07:13:12;;;;;;;30.92;16.80;;;256.80;2252.80;;;;;;5033550;28;20025;-84
2021/10/16 07:15:38;;;;;;;40.13;22.92;;;256.80;2252.80;;;;;;5017488;28;20026;-93
2021/10/16 07:18:04;;;;;;;29.48;18.92;;;256.80;2252.80;;;;;;5034835;28;20014;-91
2021/10/16 07:20:31;;;;;;;27.95;20.25;;;256.90;2252.80;;;;;;5033977;28;20393;-88
2021/10/16 07:22:56;;;;;;;40.63;26.50;;;256.90;2252.80;;;;;;5034504;28;20038;-88
2021/10/16 07:25:22;;;;;;;45.67;30.92;;;256.90;2252.80;;;;;;5037155;28;20425;-90
2021/10/16 07:27:51;;;;;;;70.53;39.42;;;256.90;2252.80;;;;;;5038533;28;20033;-87
2021/10/16 07:30:18;;;;;;;63.17;41.47;;;256.90;2252.80;;;;;;5041898;28;20017;-91
2021/10/16 07:32:45;;;;;;;69.55;38.90;;;281.60;2278.40;;;;;;5023503;28;20027;-95
2021/10/16 07:35:11;;;;;;;54.03;33.20;;;281.60;2278.40;;;;;;5042502;28;20021;-92
2021/10/16 07:37:37;;;;;;;42.42;26.63;;;281.60;2278.40;;;;;;5021369;28;20022;-85
2021/10/16 07:40:06;;;;;;;51.67;26.17;;;281.60;2278.40;;;;;;5043028;28;20022;-91
2021/10/16 07:42:31;;;;;;;89.57;50.25;;;281.60;2278.40;;;;;;5030840;28;20053;-84
2021/10/16 07:44:57;;;;;;;88.70;48.47;;;281.70;2278.40;;;;;;5023420;28;20060;-84
2021/10/16 07:47:26;;;;;;;42.70;27.58;;;281.70;2278.40;;;;;;5037935;28;20036;-92
2021/10/16 07:49:53;;;;;;;48.00;25.23;;;281.80;2278.40;;;;;;5037768;28;20087;-92
2021/10/16 07:52:19;;;;;;;64.25;35.88;;;281.80;2278.40;;;;;;5037901;28;20026;-89
2021/10/16 07:54:45;;;;;;;43.55;27.25;;;281.80;2278.40;;;;;;5037600;28;20051;-92
2021/10/16 07:57:12;;;;;;;35.08;24.65;;;281.90;2278.40;;;;;;5037387;28;20095;-92
2021/10/16 07:59:38;;;;;;;31.35;20.83;;;281.90;2278.40;;;;;;5037620;28;20112;-92
2021/10/16 08:02:03;;;;;;;30.85;18.33;;;281.90;2278.40;;;;;;5019417;28;20133;-91
2021/10/16 08:04:29;;;;;;;32.75;19.33;;;281.90;2278.40;;;;;;5037281;28;20026;-92
2021/10/16 08:06:55;;;;;;;30.88;19.50;;;282.00;2278.40;;;;;;5037277;28;20071;-91
2021/10/16 08:09:21;;;;;;;31.98;17.20;;;282.00;2278.40;;;;;;5036831;28;20108;-92
2021/10/16 08:11:46;;;;;;;32.40;19.02;;;281.90;2278.40;;;;;;5037488;28;20071;-93
2021/10/16 08:14:12;;;;;;;41.45;22.95;;;282.00;2278.40;;;;;;5037131;28;20032;-92
2021/10/16 08:16:38;;;;;;;37.65;23.00;;;282.00;2278.40;;;;;;5037063;28;20021;-89
2021/10/16 08:19:04;;;;;;;39.83;25.45;;;281.90;2278.40;;;;;;5025336;28;20481;-91
2021/10/16 08:21:29;;;;;;;31.83;20.75;;;281.90;2278.40;;;;;;5044272;28;20037;-91
2021/10/16 08:23:55;;;;;;;30.55;15.82;;;282.00;2278.40;;;;;;5019142;28;20466;-92
2021/10/16 08:26:21;;;;;;;29.20;17.65;;;282.00;2278.40;;;;;;5037044;28;20025;-92
2021/10/16 08:28:48;;;;;;;25.08;15.50;;;282.00;2278.40;;;;;;5020644;28;20029;-91
2021/10/16 08:31:14;;;;;;;26.13;16.65;;;281.90;2278.40;;;;;;5019450;28;20029;-92
2021/10/16 08:33:40;;;;;;;24.13;14.57;;;281.90;2278.40;;;;;;5036314;28;20028;-92
2021/10/16 08:36:06;;;;;;;18.52;11.52;;;281.90;2278.40;;;;;;5036145;28;20108;-93
2021/10/16 08:38:32;;;;;;;21.60;14.45;;;281.90;2278.40;;;;;;5019471;28;20048;-92
2021/10/16 08:40:58;;;;;;;18.25;13.43;;;281.90;2278.40;;;;;;5036643;28;20030;-86
2021/10/16 08:43:24;;;;;;;24.15;12.98;;;281.90;2278.40;;;;;;5018750;28;20057;-92
2021/10/16 08:45:50;;;;;;;27.95;17.23;;;281.90;2278.40;;;;;;5019180;28;20028;-91
2021/10/16 08:48:16;;;;;;;27.20;15.85;;;281.90;2278.40;;;;;;5036924;28;20025;-92
2021/10/16 08:50:48;;;;;;;17.08;11.43;;;281.90;2278.40;;;;;;5037681;28;20045;-90
2021/10/16 08:53:14;;;;;;;34.42;20.80;;;281.90;2278.40;;;;;;5019485;28;20393;-92
2021/10/16 08:55:42;;;;;;;35.40;20.33;;;281.90;2278.40;;;;;;5036316;28;20036;-89
2021/10/16 08:58:07;;;;;;;39.38;20.67;;;281.90;2278.40;;;;;;5036009;28;20050;-89
2021/10/16 09:00:49;;;;;;;18.30;11.65;;;281.90;2278.40;;;;;;5036537;28;20028;-92
2021/10/16 09:03:17;;;;;;;18.27;12.13;;;281.90;2278.40;;;;;;5018538;28;20033;-92
2021/10/16 09:05:59;;;;;;;25.13;14.98;;;281.90;2278.40;;;;;;5036717;28;20026;-91
2021/10/16 09:08:36;;;;;;;22.67;15.00;;;281.80;2278.40;;;;;;5036110;28;20045;-92
2021/10/16 09:11:16;;;;;;;27.88;17.00;;;281.80;2278.40;;;;;;5036520;28;20060;-92
2021/10/16 09:13:53;;;;;;;27.33;15.60;;;281.90;2278.40;;;;;;5035973;28;20025;-92
2021/10/16 09:16:42;;;;;;;23.48;16.80;;;281.90;2278.40;;;;;;5036317;28;20089;-87
2021/10/16 09:19:11;;;;;;;20.15;12.55;;;281.90;2278.40;;;;;;5039489;28;20101;-90
2021/10/16 09:21:40;;;;;;;26.08;14.77;;;281.90;2278.40;;;;;;5022507;28;20040;-91
2021/10/16 09:24:10;;;;;;;30.13;18.13;;;281.90;2278.40;;;;;;5050145;28;20001;-91
2021/10/16 09:26:38;;;;;;;39.05;23.40;;;282.00;2278.40;;;;;;5058463;28;20029;-84
2021/10/16 09:29:06;;;;;;;26.05;16.95;;;282.00;2278.40;;;;;;5039261;28;20038;-91
2021/10/16 09:31:36;;;;;;;50.83;28.08;;;282.00;2278.40;;;;;;5040814;28;20065;-90
2021/10/16 09:34:03;;;;;;;35.22;21.27;;;282.00;2278.40;;;;;;5053065;28;20005;-93
2021/10/16 09:36:30;;;;;;;27.63;19.05;;;282.00;2278.40;;;;;;5042529;28;20060;-90
2021/10/16 09:38:58;;;;;;;34.28;21.83;;;282.00;2278.40;;;;;;5023548;28;20025;-92
2021/10/16 09:41:35;;;;;;;30.92;19.70;;;282.00;2278.40;;;;;;5038848;28;20107;-91
2021/10/16 09:44:04;;;;;;;27.58;18.23;;;282.00;2278.40;;;;;;5035404;28;20021;-91
2021/10/16 09:46:30;;;;;;;29.67;19.05;;;282.00;2278.40;;;;;;5035198;28;20030;-90
2021/10/16 09:49:07;;;;;;;30.08;18.52;;;282.00;2278.40;;;;;;5035012;28;20025;-91
2021/10/16 09:51:49;;;;;;;34.17;20.55;;;282.10;2278.40;;;;;;5035620;28;20022;-93
2021/10/16 09:54:15;;;;;;;30.83;19.33;;;282.10;2278.40;;;;;;5035479;28;20014;-91
2021/10/16 09:56:41;;;;;;;31.85;19.23;;;282.10;2278.40;;;;;;5035115;28;20041;-91
2021/10/16 09:59:09;;;;;;;30.58;17.92;;;282.10;2278.40;;;;;;5017634;28;20037;-91
2021/10/16 10:01:35;;;;;;;30.75;19.95;;;282.10;2278.40;;;;;;5017990;28;20025;-91
2021/10/16 10:04:02;;;;;;;25.92;17.05;;;282.10;2278.40;;;;;;5035184;28;20033;-90
2021/10/16 10:06:28;;;;;;;39.88;21.33;;;282.10;2278.40;;;;;;5035206;28;20013;-86
2021/10/16 10:08:54;;;;;;;27.90;17.23;;;282.20;2278.40;;;;;;5034744;28;20478;-88
2021/10/16 10:11:20;;;;;;;30.65;19.15;;;282.20;2278.40;;;;;;5035010;28;20069;-89
2021/10/16 10:13:48;;;;;;;35.22;21.83;;;282.20;2278.40;;;;;;5017004;28;20021;-92
2021/10/16 10:16:14;;;;;;;33.05;20.38;;;282.20;2278.40;;;;;;5034907;28;20351;-87
2021/10/16 10:18:59;;;;;;;55.15;27.80;;;282.20;2278.40;;;;;;5034448;28;20022;-90
2021/10/16 10:21:31;;;;;;;38.50;25.38;;;282.20;2278.40;;;;;;5034238;28;20488;-92
2021/10/16 10:23:58;;;;;;;45.95;27.02;;;282.20;2278.40;;;;;;5034422;28;20051;-90
2021/10/16 10:26:26;;;;;;;49.05;30.08;;;282.20;2278.40;;;;;;5016765;28;20041;-82
2021/10/16 10:29:01;;;;;;;45.95;27.98;;;282.20;2278.40;;;;;;5016992;28;20025;-91
2021/10/16 10:31:45;;;;;;;40.38;26.40;;;282.20;2278.40;;;;;;5017543;28;20021;-91
2021/10/16 10:34:22;;;;;;;35.95;22.85;;;282.30;2278.40;;;;;;5035284;28;20026;-90
2021/10/16 10:37:10;;;;;;;40.15;23.83;;;282.40;2278.40;;;;;;5034952;28;20025;-91
2021/10/16 10:39:39;;;;;;;34.33;19.92;;;282.40;2278.40;;;;;;5035292;28;20017;-91
2021/10/16 10:42:13;;;;;;;27.55;18.52;;;282.40;2278.40;;;;;;5037545;28;20033;-91
2021/10/16 10:44:47;;;;;;;34.20;19.95;;;282.40;2278.40;;;;;;5053972;28;20105;-88
2021/10/16 10:47:30;;;;;;;31.42;19.88;;;282.50;2278.40;;;;;;5049227;28;20028;-83
2021/10/16 10:49:58;;;;;;;42.45;26.17;;;282.50;2278.40;;;;;;5030375;28;20041;-89
2021/10/16 10:52:29;;;;;;;62.88;40.38;;;282.50;2278.40;;;;;;5025976;28;20060;-79
2021/10/16 10:55:07;;;;;;;53.03;32.50;;;282.50;2278.40;;;;;;5029514;28;20033;-77
2021/10/16 10:57:58;;;;;;;47.72;30.73;;;307.20;2304.00;;;;;;5045835;28;20069;-87
2021/10/16 11:00:32;;;;;;;47.08;28.95;;;307.20;2304.00;;;;;;5030732;28;20033;-89
2021/10/16 11:02:58;;;;;;;56.17;35.78;;;307.20;2304.00;;;;;;5042406;28;20034;-84
2021/10/16 11:08:09;;;;;;;54.05;34.80;;;307.30;2304.00;;;;;;5037863;28;20385;-81
2021/10/16 11:10:37;;;;;;;160.85;80.40;;;307.30;2304.00;;;;;;5038161;28;20026;-90
2021/10/16 11:13:16;;;;;;;52.75;31.48;;;307.30;2304.00;;;;;;5037148;28;20104;-79
2021/10/16 11:15:55;;;;;;;51.30;30.95;;;307.30;2304.00;;;;;;5018702;28;20029;-81
2021/10/16 11:18:21;;;;;;;53.35;34.53;;;307.30;2304.00;;;;;;5037358;28;20053;-78
2021/10/16 11:20:47;;;;;;;40.72;26.33;;;307.30;2304.00;;;;;;5037822;28;20124;-89
2021/10/16 11:23:24;;;;;;;48.55;29.15;;;307.30;2304.00;;;;;;5038136;28;20037;-90
2021/10/16 11:26:07;;;;;;;35.40;23.38;;;307.30;2304.00;;;;;;5020532;28;20127;-89
2021/10/16 11:28:35;;;;;;;37.70;25.10;;;307.30;2304.00;;;;;;5020168;28;20112;-89
2021/10/16 11:31:01;;;;;;;40.42;26.20;;;307.30;2304.00;;;;;;5020226;28;20108;-90
2021/10/16 11:33:29;;;;;;;36.45;23.50;;;307.30;2304.00;;;;;;5020295;28;20060;-90
2021/10/16 11:35:57;;;;;;;35.80;22.38;;;307.30;2304.00;;;;;;5021421;28;20385;-91
2021/10/16 11:38:26;;;;;;;40.17;26.13;;;307.30;2304.00;;;;;;5039335;28;20033;-91
2021/10/16 11:40:54;;;;;;;38.42;24.00;;;307.30;2304.00;;;;;;5039017;28;20108;-90
2021/10/16 11:43:22;;;;;;;43.08;24.85;;;307.30;2304.00;;;;;;5038027;28;20072;-90
2021/10/16 11:45:50;;;;;;;34.97;20.90;;;307.30;2304.00;;;;;;5038205;28;20029;-89
2021/10/16 11:48:19;;;;;;;38.78;24.65;;;307.30;2304.00;;;;;;5037724;28;20081;-90
2021/10/16 11:51:06;;;;;;;41.45;27.42;;;307.30;2304.00;;;;;;5037842;28;20077;-90
2021/10/16 11:53:34;;;;;;;37.10;22.38;;;307.30;2304.00;;;;;;5037179;28;20568;-90
2021/10/16 11:56:07;;;;;;;39.30;23.80;;;307.30;2304.00;;;;;;5037561;28;20482;-88
2021/10/16 11:58:34;;;;;;;38.70;22.65;;;307.30;2304.00;;;;;;5019621;28;20052;-89
2021/10/16 12:01:01;;;;;;;40.72;26.50;;;307.30;2304.00;;;;;;5019843;28;20083;-89
2021/10/16 12:03:42;;;;;;;44.25;24.33;;;307.40;2304.00;;;;;;5016421;28;20407;-90
2021/10/16 12:06:09;;;;;;;40.97;24.83;;;307.40;2304.00;;;;;;5017617;28;20101;-87
2021/10/16 12:08:47;;;;;;;43.60;26.38;;;307.40;2304.00;;;;;;5017359;28;20065;-89
2021/10/16 12:11:27;;;;;;;43.90;24.75;;;307.40;2304.00;;;;;;5016432;28;20048;-88